Terminal Aerodrome Forecast
Issued by NWS

Home | Current Version | Previous Version | Text Only | Print | Product List | Glossary On
Versions: 1 2 3 4 5 6 7 8 9 10 11 12
844
FTUS44 KLZK 231139
TAFHRO
TAF
KHRO 231139Z 2312/2412 23003KT P6SM OVC250
     FM231500 29007KT P6SM SCT040 BKN250
     FM232000 31007KT P6SM BKN050
      TEMPO 2321/2401 4SM TSRA BR OVC035CB
     FM240100 10003KT P6SM SCT100 BKN250
     FM240700 28003KT P6SM SCT250=

USA.gov is the U.S. government's official web portal to all federal, state and local government web resources and services.